createdAt,value
2022-12-18T08:46:45.850Z,18.45
2022-12-18T08:57:56.356Z,18.40
2022-12-18T09:01:32.342Z,18.87
2022-12-18T09:05:05.083Z,18.40
2022-12-18T09:08:43.562Z,19.08
2022-12-18T09:12:23.411Z,17.70
2022-12-18T09:15:56.885Z,18.50
2022-12-18T09:19:20.960Z,18.77
2022-12-18T09:22:55.636Z,20.33
2022-12-18T09:26:40.973Z,16.15
2022-12-18T09:30:26.555Z,18.60
2022-12-18T09:34:24.726Z,16.27
2022-12-18T09:37:52.758Z,20.48
2022-12-18T09:41:42.542Z,17.35
2022-12-18T09:45:41.982Z,17.40
2022-12-18T09:49:28.647Z,16.75
2022-12-18T09:53:23.808Z,17.77
2022-12-18T09:57:00.436Z,19.52
2022-12-18T10:15:45.375Z,16.87
2022-12-18T10:18:59.415Z,18.50
2022-12-18T11:35:55.908Z,15.10
2022-12-18T11:39:03.969Z,16.40
2022-12-18T11:42:17.592Z,10.30
2022-12-18T11:45:32.193Z,14.45
2022-12-18T11:49:16.861Z,12.55
2022-12-18T11:52:25.267Z,15.85
2022-12-18T11:55:50.321Z,13.95
2022-12-18T11:59:17.609Z,14.77
2022-12-18T12:02:39.456Z,15.18
2022-12-18T12:06:27.860Z,15.80
2022-12-18T12:09:52.147Z,16.65
2022-12-18T14:39:00.718Z,14.13
2022-12-18T15:39:36.977Z,12.48
2022-12-18T15:43:25.375Z,12.30
2022-12-18T15:46:48.175Z,12.65
2022-12-18T15:50:11.918Z,11.82
2022-12-18T15:53:35.135Z,12.63
2022-12-18T15:57:24.211Z,12.13
2022-12-18T16:00:47.218Z,12.55
2022-12-18T16:04:30.723Z,12.35
2022-12-18T16:08:13.862Z,14.87
2022-12-18T16:12:20.547Z,19.55
2022-12-18T16:16:07.222Z,14.30
2022-12-18T16:19:45.980Z,16.75
2022-12-18T16:23:46.835Z,18.52
2022-12-18T16:31:14.583Z,21.52
2022-12-18T16:34:51.992Z,25.12
2022-12-18T16:38:29.534Z,23.87
2022-12-18T16:42:18.265Z,27.02
2022-12-18T16:45:53.200Z,25.58
2022-12-18T16:49:27.430Z,23.23
2022-12-18T16:53:02.572Z,25.23
2022-12-18T16:56:06.475Z,23.45
2022-12-18T16:59:30.111Z,27.27
2022-12-18T17:03:20.833Z,25.75
2022-12-18T17:06:54.680Z,22.35
2022-12-18T17:10:01.611Z,20.30
2022-12-18T17:13:27.572Z,18.95
2022-12-18T17:17:19.301Z,16.12
2022-12-18T17:20:35.659Z,14.80
2022-12-18T17:23:39.549Z,12.80
2022-12-18T17:26:43.835Z,13.70
2022-12-18T17:29:48.372Z,15.73
2022-12-18T17:32:51.786Z,15.05
2022-12-18T17:36:15.927Z,15.05
2022-12-18T17:39:23.022Z,14.25
2022-12-18T17:42:26.414Z,14.80
2022-12-18T17:45:29.601Z,15.63
2022-12-18T17:48:35.382Z,13.30
2022-12-18T17:51:41.570Z,14.82
2022-12-18T17:54:46.240Z,15.13
2022-12-18T17:57:56.173Z,15.60
2022-12-18T18:01:05.873Z,13.50
2022-12-18T18:04:09.759Z,13.60
2022-12-18T18:07:13.567Z,15.05
2022-12-18T18:10:25.201Z,13.20
2022-12-18T18:14:03.134Z,14.35
2022-12-18T18:17:14.757Z,14.77
2022-12-18T18:20:40.919Z,13.13
2022-12-18T18:23:45.157Z,14.07
2022-12-18T19:16:38.147Z,13.52
2022-12-18T19:19:41.200Z,13.98
2022-12-18T19:22:44.789Z,12.52
2022-12-18T19:26:26.910Z,13.05
2022-12-18T19:29:27.852Z,13.85
2022-12-18T19:32:31.504Z,11.35
2022-12-18T19:35:34.434Z,14.65
2022-12-18T19:38:38.231Z,12.95
2022-12-18T19:41:42.225Z,13.62
2022-12-18T19:44:45.598Z,14.02
2022-12-18T19:47:48.254Z,17.00
2022-12-18T19:50:51.153Z,13.05
2022-12-18T19:53:58.867Z,14.65
2022-12-18T19:57:02.881Z,12.98
2022-12-18T20:00:06.798Z,14.13
2022-12-18T20:03:24.274Z,15.18
2022-12-18T20:06:34.298Z,13.80
2022-12-18T20:09:37.080Z,13.82
2022-12-18T20:12:40.177Z,14.38
2022-12-18T20:15:45.265Z,15.55
2022-12-18T20:18:49.264Z,15.85
2022-12-18T20:21:52.413Z,17.17
2022-12-18T20:24:55.410Z,16.25
2022-12-18T20:27:58.234Z,16.62
2022-12-18T20:31:06.642Z,19.35
2022-12-18T20:34:09.548Z,16.85
2022-12-18T20:37:19.454Z,16.58
2022-12-18T20:40:24.124Z,14.80
2022-12-18T20:43:27.064Z,17.15
2022-12-18T20:46:29.744Z,17.70
2022-12-18T20:49:32.704Z,16.42
2022-12-18T20:52:35.317Z,17.23
2022-12-18T20:55:42.417Z,18.08
2022-12-18T20:58:45.706Z,19.55
2022-12-18T21:01:49.501Z,16.33
2022-12-18T21:04:53.337Z,18.67
2022-12-18T21:07:56.380Z,20.52
2022-12-18T21:11:47.089Z,17.75
2022-12-18T21:14:50.122Z,20.65
2022-12-18T21:17:53.113Z,19.65
2022-12-18T21:20:56.213Z,19.17
2022-12-18T21:23:59.032Z,16.70
2022-12-18T21:27:02.116Z,19.55
2022-12-18T21:30:05.616Z,21.12
2022-12-18T21:33:08.762Z,20.90
2022-12-18T21:36:12.209Z,19.67
2022-12-18T21:39:16.716Z,19.23
2022-12-18T21:42:37.897Z,20.98
2022-12-18T21:45:41.032Z,18.25
2022-12-18T21:48:44.234Z,21.15
2022-12-18T21:51:49.531Z,23.38
2022-12-18T21:54:52.255Z,20.98
2022-12-18T21:57:55.348Z,23.08
2022-12-18T22:00:58.123Z,24.17
2022-12-18T22:04:01.018Z,24.60
2022-12-18T22:07:05.272Z,20.23
2022-12-18T22:10:09.115Z,21.15
2022-12-18T22:13:11.793Z,21.55
2022-12-18T22:16:14.786Z,24.15
2022-12-18T22:19:18.234Z,21.52
2022-12-18T22:22:21.230Z,20.70
2022-12-18T22:25:23.823Z,21.25
2022-12-18T22:28:45.301Z,20.83
2022-12-18T22:31:48.250Z,21.67
2022-12-18T22:34:51.248Z,20.20
2022-12-18T22:37:53.901Z,18.10
2022-12-18T22:40:56.839Z,18.05
2022-12-18T22:43:59.732Z,21.48
2022-12-18T22:47:07.033Z,22.10
2022-12-18T22:50:14.799Z,21.55
2022-12-18T22:53:19.951Z,20.10
2022-12-18T22:56:22.826Z,16.15
2022-12-18T22:59:25.872Z,20.60
2022-12-18T23:02:28.655Z,17.52
2022-12-18T23:05:32.108Z,19.58
2022-12-18T23:08:35.049Z,18.15
2022-12-18T23:11:37.975Z,19.37
2022-12-18T23:14:40.524Z,19.98
2022-12-18T23:17:43.464Z,22.05
2022-12-18T23:20:46.514Z,20.20
2022-12-18T23:23:51.001Z,20.92
2022-12-18T23:26:53.888Z,20.27
2022-12-18T23:29:56.883Z,20.67
2022-12-18T23:33:01.404Z,19.23
2022-12-18T23:36:05.304Z,21.27
2022-12-18T23:39:07.929Z,19.42
2022-12-18T23:42:10.877Z,20.73
2022-12-18T23:45:17.853Z,17.77
2022-12-18T23:48:21.325Z,24.80
2022-12-18T23:51:25.690Z,19.52
2022-12-18T23:54:33.568Z,18.62
2022-12-18T23:57:36.425Z,19.75
